sensor_id;sensor_type;location;lat;lon;timestamp;P1;durP1;ratioP1;P2;durP2;ratioP2
18172;SDS011;9211;48.818;9.312;2023-04-15T00:02:15;11.32;;;4.30;;
18172;SDS011;9211;48.818;9.312;2023-04-15T00:04:43;9.70;;;4.40;;
18172;SDS011;9211;48.818;9.312;2023-04-15T00:07:10;9.80;;;4.20;;
18172;SDS011;9211;48.818;9.312;2023-04-15T00:09:37;10.87;;;4.20;;
18172;SDS011;9211;48.818;9.312;2023-04-15T00:12:05;8.10;;;4.00;;
18172;SDS011;9211;48.818;9.312;2023-04-15T00:14:33;10.40;;;4.50;;
18172;SDS011;9211;48.818;9.312;2023-04-15T00:17:00;10.03;;;4.30;;
18172;SDS011;9211;48.818;9.312;2023-04-15T00:19:27;10.03;;;4.30;;
18172;SDS011;9211;48.818;9.312;2023-04-15T00:21:54;11.27;;;4.30;;
18172;SDS011;9211;48.818;9.312;2023-04-15T00:24:21;11.75;;;4.35;;
18172;SDS011;9211;48.818;9.312;2023-04-15T00:26:48;8.73;;;4.25;;
18172;SDS011;9211;48.818;9.312;2023-04-15T00:29:17;9.25;;;4.10;;
18172;SDS011;9211;48.818;9.312;2023-04-15T00:31:44;7.82;;;3.90;;
18172;SDS011;9211;48.818;9.312;2023-04-15T00:34:11;9.82;;;4.47;;
18172;SDS011;9211;48.818;9.312;2023-04-15T00:36:41;9.23;;;4.28;;
18172;SDS011;9211;48.818;9.312;2023-04-15T00:39:08;8.70;;;4.57;;
18172;SDS011;9211;48.818;9.312;2023-04-15T00:41:35;9.32;;;4.10;;
18172;SDS011;9211;48.818;9.312;2023-04-15T00:44:04;8.63;;;4.75;;
18172;SDS011;9211;48.818;9.312;2023-04-15T00:46:34;9.15;;;4.50;;
18172;SDS011;9211;48.818;9.312;2023-04-15T00:49:03;8.35;;;4.60;;
18172;SDS011;9211;48.818;9.312;2023-04-15T00:51:31;9.13;;;4.30;;
18172;SDS011;9211;48.818;9.312;2023-04-15T00:54:00;8.52;;;4.85;;
18172;SDS011;9211;48.818;9.312;2023-04-15T00:56:28;9.77;;;4.80;;
18172;SDS011;9211;48.818;9.312;2023-04-15T00:58:55;9.98;;;4.47;;
18172;SDS011;9211;48.818;9.312;2023-04-15T01:01:24;8.88;;;4.40;;
18172;SDS011;9211;48.818;9.312;2023-04-15T01:03:54;9.40;;;4.80;;
18172;SDS011;9211;48.818;9.312;2023-04-15T01:06:22;10.02;;;4.70;;
18172;SDS011;9211;48.818;9.312;2023-04-15T01:08:51;11.10;;;5.00;;
18172;SDS011;9211;48.818;9.312;2023-04-15T01:11:18;9.55;;;4.43;;
18172;SDS011;9211;48.818;9.312;2023-04-15T01:13:45;8.60;;;4.38;;
18172;SDS011;9211;48.818;9.312;2023-04-15T01:16:12;10.88;;;4.50;;
18172;SDS011;9211;48.818;9.312;2023-04-15T01:18:41;8.93;;;4.65;;
18172;SDS011;9211;48.818;9.312;2023-04-15T01:21:09;9.98;;;4.63;;
18172;SDS011;9211;48.818;9.312;2023-04-15T01:23:36;8.60;;;4.40;;
18172;SDS011;9211;48.818;9.312;2023-04-15T01:26:06;7.60;;;4.50;;
18172;SDS011;9211;48.818;9.312;2023-04-15T01:28:34;8.63;;;4.10;;
18172;SDS011;9211;48.818;9.312;2023-04-15T01:31:06;9.32;;;4.35;;
18172;SDS011;9211;48.818;9.312;2023-04-15T01:33:35;8.27;;;4.20;;
18172;SDS011;9211;48.818;9.312;2023-04-15T01:36:03;10.23;;;4.25;;
18172;SDS011;9211;48.818;9.312;2023-04-15T01:38:32;8.65;;;4.10;;
18172;SDS011;9211;48.818;9.312;2023-04-15T01:41:00;9.60;;;4.38;;
18172;SDS011;9211;48.818;9.312;2023-04-15T01:43:28;9.60;;;4.43;;
18172;SDS011;9211;48.818;9.312;2023-04-15T01:45:56;11.45;;;4.70;;
18172;SDS011;9211;48.818;9.312;2023-04-15T01:48:23;12.38;;;4.60;;
18172;SDS011;9211;48.818;9.312;2023-04-15T01:50:51;8.57;;;3.90;;
18172;SDS011;9211;48.818;9.312;2023-04-15T01:53:21;8.40;;;4.00;;
18172;SDS011;9211;48.818;9.312;2023-04-15T01:55:48;8.33;;;4.10;;
18172;SDS011;9211;48.818;9.312;2023-04-15T01:58:16;8.35;;;4.03;;
18172;SDS011;9211;48.818;9.312;2023-04-15T02:03:26;7.85;;;4.10;;
18172;SDS011;9211;48.818;9.312;2023-04-15T02:05:53;7.53;;;4.00;;
18172;SDS011;9211;48.818;9.312;2023-04-15T02:08:20;7.18;;;3.80;;
18172;SDS011;9211;48.818;9.312;2023-04-15T02:10:47;7.90;;;3.90;;
18172;SDS011;9211;48.818;9.312;2023-04-15T02:13:15;8.18;;;4.30;;
18172;SDS011;9211;48.818;9.312;2023-04-15T02:15:45;7.88;;;3.90;;
18172;SDS011;9211;48.818;9.312;2023-04-15T02:18:13;8.73;;;4.10;;
18172;SDS011;9211;48.818;9.312;2023-04-15T02:20:43;10.27;;;4.13;;
18172;SDS011;9211;48.818;9.312;2023-04-15T02:23:11;9.82;;;4.43;;
18172;SDS011;9211;48.818;9.312;2023-04-15T02:25:38;9.15;;;3.92;;
18172;SDS011;9211;48.818;9.312;2023-04-15T02:28:05;10.93;;;4.10;;
18172;SDS011;9211;48.818;9.312;2023-04-15T02:30:32;7.45;;;3.90;;
18172;SDS011;9211;48.818;9.312;2023-04-15T02:33:01;7.90;;;4.03;;
18172;SDS011;9211;48.818;9.312;2023-04-15T02:35:28;10.93;;;4.53;;
18172;SDS011;9211;48.818;9.312;2023-04-15T02:37:57;10.65;;;4.30;;
18172;SDS011;9211;48.818;9.312;2023-04-15T02:40:25;9.68;;;4.15;;
18172;SDS011;9211;48.818;9.312;2023-04-15T02:42:52;12.27;;;4.32;;
18172;SDS011;9211;48.818;9.312;2023-04-15T02:45:19;8.23;;;4.32;;
18172;SDS011;9211;48.818;9.312;2023-04-15T02:47:48;9.25;;;4.22;;
18172;SDS011;9211;48.818;9.312;2023-04-15T02:50:15;7.22;;;4.22;;
18172;SDS011;9211;48.818;9.312;2023-04-15T02:52:42;9.05;;;4.10;;
18172;SDS011;9211;48.818;9.312;2023-04-15T02:55:11;9.13;;;4.47;;
18172;SDS011;9211;48.818;9.312;2023-04-15T02:57:38;10.75;;;4.28;;
18172;SDS011;9211;48.818;9.312;2023-04-15T03:00:08;8.73;;;4.65;;
18172;SDS011;9211;48.818;9.312;2023-04-15T03:02:38;8.90;;;4.70;;
18172;SDS011;9211;48.818;9.312;2023-04-15T03:05:09;11.00;;;4.68;;
18172;SDS011;9211;48.818;9.312;2023-04-15T03:07:39;8.45;;;4.00;;
18172;SDS011;9211;48.818;9.312;2023-04-15T03:10:07;9.40;;;4.20;;
18172;SDS011;9211;48.818;9.312;2023-04-15T03:12:36;8.27;;;4.18;;
18172;SDS011;9211;48.818;9.312;2023-04-15T03:15:04;8.98;;;4.20;;
18172;SDS011;9211;48.818;9.312;2023-04-15T03:17:36;11.27;;;4.20;;
18172;SDS011;9211;48.818;9.312;2023-04-15T03:20:04;8.77;;;4.25;;
18172;SDS011;9211;48.818;9.312;2023-04-15T03:22:32;9.73;;;4.15;;
18172;SDS011;9211;48.818;9.312;2023-04-15T03:24:59;10.57;;;4.27;;
18172;SDS011;9211;48.818;9.312;2023-04-15T03:27:26;9.50;;;4.10;;
18172;SDS011;9211;48.818;9.312;2023-04-15T03:29:59;8.65;;;4.30;;
18172;SDS011;9211;48.818;9.312;2023-04-15T03:32:29;9.85;;;4.43;;
18172;SDS011;9211;48.818;9.312;2023-04-15T03:34:56;8.02;;;4.20;;
18172;SDS011;9211;48.818;9.312;2023-04-15T03:37:23;11.65;;;4.50;;
18172;SDS011;9211;48.818;9.312;2023-04-15T03:39:50;9.50;;;4.43;;
18172;SDS011;9211;48.818;9.312;2023-04-15T03:42:17;11.20;;;4.50;;
18172;SDS011;9211;48.818;9.312;2023-04-15T03:44:44;10.40;;;4.78;;
18172;SDS011;9211;48.818;9.312;2023-04-15T03:47:12;11.10;;;4.63;;
18172;SDS011;9211;48.818;9.312;2023-04-15T03:49:39;10.27;;;4.55;;
18172;SDS011;9211;48.818;9.312;2023-04-15T03:52:06;9.77;;;4.73;;
18172;SDS011;9211;48.818;9.312;2023-04-15T03:54:33;9.07;;;4.70;;
18172;SDS011;9211;48.818;9.312;2023-04-15T03:57:00;9.07;;;4.25;;
18172;SDS011;9211;48.818;9.312;2023-04-15T03:59:27;8.65;;;4.32;;
18172;SDS011;9211;48.818;9.312;2023-04-15T04:01:54;9.45;;;4.18;;
18172;SDS011;9211;48.818;9.312;2023-04-15T04:04:22;8.75;;;4.57;;
18172;SDS011;9211;48.818;9.312;2023-04-15T04:06:50;8.57;;;4.47;;
18172;SDS011;9211;48.818;9.312;2023-04-15T04:09:16;8.30;;;4.63;;
18172;SDS011;9211;48.818;9.312;2023-04-15T04:11:43;11.32;;;4.35;;
18172;SDS011;9211;48.818;9.312;2023-04-15T04:14:10;9.95;;;4.70;;
18172;SDS011;9211;48.818;9.312;2023-04-15T04:16:37;7.18;;;4.10;;
18172;SDS011;9211;48.818;9.312;2023-04-15T04:19:04;10.35;;;4.50;;
18172;SDS011;9211;48.818;9.312;2023-04-15T04:21:33;10.27;;;4.43;;
18172;SDS011;9211;48.818;9.312;2023-04-15T04:24:00;7.55;;;4.13;;
18172;SDS011;9211;48.818;9.312;2023-04-15T04:26:27;8.57;;;4.20;;
18172;SDS011;9211;48.818;9.312;2023-04-15T04:28:54;9.60;;;4.13;;
18172;SDS011;9211;48.818;9.312;2023-04-15T04:31:21;10.60;;;4.50;;
18172;SDS011;9211;48.818;9.312;2023-04-15T04:33:48;9.50;;;4.53;;
18172;SDS011;9211;48.818;9.312;2023-04-15T04:36:15;8.60;;;4.25;;
18172;SDS011;9211;48.818;9.312;2023-04-15T04:38:44;8.50;;;4.22;;
18172;SDS011;9211;48.818;9.312;2023-04-15T04:41:10;9.35;;;4.72;;
18172;SDS011;9211;48.818;9.312;2023-04-15T04:43:37;10.63;;;5.00;;
18172;SDS011;9211;48.818;9.312;2023-04-15T04:46:05;11.90;;;4.40;;
18172;SDS011;9211;48.818;9.312;2023-04-15T04:48:32;8.40;;;4.68;;
18172;SDS011;9211;48.818;9.312;2023-04-15T04:50:59;10.52;;;4.97;;
18172;SDS011;9211;48.818;9.312;2023-04-15T04:53:26;10.57;;;4.40;;
18172;SDS011;9211;48.818;9.312;2023-04-15T04:55:54;7.88;;;4.40;;
18172;SDS011;9211;48.818;9.312;2023-04-15T04:58:21;9.10;;;4.30;;
18172;SDS011;9211;48.818;9.312;2023-04-15T05:00:48;10.02;;;4.28;;
18172;SDS011;9211;48.818;9.312;2023-04-15T05:03:16;11.98;;;4.45;;
18172;SDS011;9211;48.818;9.312;2023-04-15T05:05:43;8.85;;;4.18;;
18172;SDS011;9211;48.818;9.312;2023-04-15T05:08:10;9.20;;;4.60;;
18172;SDS011;9211;48.818;9.312;2023-04-15T05:10:36;9.85;;;4.40;;
18172;SDS011;9211;48.818;9.312;2023-04-15T05:13:05;11.07;;;4.38;;
18172;SDS011;9211;48.818;9.312;2023-04-15T05:15:32;11.57;;;4.45;;
18172;SDS011;9211;48.818;9.312;2023-04-15T05:18:01;7.60;;;4.30;;
18172;SDS011;9211;48.818;9.312;2023-04-15T05:20:28;12.02;;;4.50;;
18172;SDS011;9211;48.818;9.312;2023-04-15T05:22:55;11.25;;;4.60;;
18172;SDS011;9211;48.818;9.312;2023-04-15T05:25:22;11.70;;;4.80;;
18172;SDS011;9211;48.818;9.312;2023-04-15T05:27:49;8.93;;;4.40;;
18172;SDS011;9211;48.818;9.312;2023-04-15T05:30:17;8.20;;;4.55;;
18172;SDS011;9211;48.818;9.312;2023-04-15T05:32:44;8.70;;;4.80;;
18172;SDS011;9211;48.818;9.312;2023-04-15T05:35:11;10.93;;;4.82;;
18172;SDS011;9211;48.818;9.312;2023-04-15T05:37:38;11.15;;;4.90;;
18172;SDS011;9211;48.818;9.312;2023-04-15T05:40:05;11.57;;;5.22;;
18172;SDS011;9211;48.818;9.312;2023-04-15T05:42:34;12.43;;;5.72;;
18172;SDS011;9211;48.818;9.312;2023-04-15T05:45:01;10.65;;;5.60;;
18172;SDS011;9211;48.818;9.312;2023-04-15T05:47:34;14.40;;;5.50;;
18172;SDS011;9211;48.818;9.312;2023-04-15T05:50:01;8.77;;;4.90;;
18172;SDS011;9211;48.818;9.312;2023-04-15T05:52:29;10.63;;;5.40;;
18172;SDS011;9211;48.818;9.312;2023-04-15T05:54:56;10.05;;;5.00;;
18172;SDS011;9211;48.818;9.312;2023-04-15T05:57:23;12.00;;;5.70;;
18172;SDS011;9211;48.818;9.312;2023-04-15T05:59:50;11.57;;;5.50;;
18172;SDS011;9211;48.818;9.312;2023-04-15T06:02:17;13.38;;;5.00;;
18172;SDS011;9211;48.818;9.312;2023-04-15T06:04:46;11.15;;;4.78;;
18172;SDS011;9211;48.818;9.312;2023-04-15T06:07:14;11.52;;;5.13;;
18172;SDS011;9211;48.818;9.312;2023-04-15T06:09:41;10.85;;;5.03;;
18172;SDS011;9211;48.818;9.312;2023-04-15T06:12:08;9.43;;;4.78;;
18172;SDS011;9211;48.818;9.312;2023-04-15T06:14:37;8.68;;;5.15;;
18172;SDS011;9211;48.818;9.312;2023-04-15T06:17:04;12.73;;;5.00;;
18172;SDS011;9211;48.818;9.312;2023-04-15T06:19:31;13.20;;;5.43;;
18172;SDS011;9211;48.818;9.312;2023-04-15T06:22:00;9.55;;;4.80;;
18172;SDS011;9211;48.818;9.312;2023-04-15T06:24:27;10.85;;;5.30;;
18172;SDS011;9211;48.818;9.312;2023-04-15T06:26:54;12.10;;;5.30;;
18172;SDS011;9211;48.818;9.312;2023-04-15T06:29:21;8.50;;;4.90;;
18172;SDS011;9211;48.818;9.312;2023-04-15T06:31:48;11.85;;;5.15;;
18172;SDS011;9211;48.818;9.312;2023-04-15T06:34:15;11.80;;;5.07;;
18172;SDS011;9211;48.818;9.312;2023-04-15T06:36:42;11.93;;;5.10;;
18172;SDS011;9211;48.818;9.312;2023-04-15T06:39:11;10.05;;;5.10;;
18172;SDS011;9211;48.818;9.312;2023-04-15T06:41:38;10.38;;;5.00;;
18172;SDS011;9211;48.818;9.312;2023-04-15T06:44:05;12.37;;;5.00;;
18172;SDS011;9211;48.818;9.312;2023-04-15T06:46:32;12.70;;;5.15;;
18172;SDS011;9211;48.818;9.312;2023-04-15T06:48:59;10.48;;;4.95;;
18172;SDS011;9211;48.818;9.312;2023-04-15T06:51:26;12.88;;;4.80;;
18172;SDS011;9211;48.818;9.312;2023-04-15T06:53:53;12.95;;;5.10;;
18172;SDS011;9211;48.818;9.312;2023-04-15T06:56:22;12.10;;;4.95;;
18172;SDS011;9211;48.818;9.312;2023-04-15T06:58:49;10.50;;;5.37;;
18172;SDS011;9211;48.818;9.312;2023-04-15T07:01:16;11.80;;;5.07;;
18172;SDS011;9211;48.818;9.312;2023-04-15T07:03:43;9.00;;;4.70;;
18172;SDS011;9211;48.818;9.312;2023-04-15T07:06:10;9.98;;;4.97;;
18172;SDS011;9211;48.818;9.312;2023-04-15T07:08:37;11.63;;;4.68;;
18172;SDS011;9211;48.818;9.312;2023-04-15T07:11:04;9.38;;;4.47;;
18172;SDS011;9211;48.818;9.312;2023-04-15T07:13:33;10.52;;;4.90;;
18172;SDS011;9211;48.818;9.312;2023-04-15T07:16:00;11.57;;;4.57;;
18172;SDS011;9211;48.818;9.312;2023-04-15T07:18:27;8.13;;;4.53;;
18172;SDS011;9211;48.818;9.312;2023-04-15T07:20:54;9.02;;;4.50;;
18172;SDS011;9211;48.818;9.312;2023-04-15T07:23:21;7.93;;;4.40;;
18172;SDS011;9211;48.818;9.312;2023-04-15T07:25:48;10.63;;;4.50;;
18172;SDS011;9211;48.818;9.312;2023-04-15T07:28:16;11.45;;;4.60;;
18172;SDS011;9211;48.818;9.312;2023-04-15T07:30:44;10.10;;;4.60;;
18172;SDS011;9211;48.818;9.312;2023-04-15T07:33:11;10.07;;;4.47;;
18172;SDS011;9211;48.818;9.312;2023-04-15T07:35:39;8.25;;;4.60;;
18172;SDS011;9211;48.818;9.312;2023-04-15T07:38:06;6.50;;;3.88;;
18172;SDS011;9211;48.818;9.312;2023-04-15T07:40:33;8.30;;;4.28;;
18172;SDS011;9211;48.818;9.312;2023-04-15T07:43:00;8.60;;;4.20;;
18172;SDS011;9211;48.818;9.312;2023-04-15T07:45:27;7.93;;;4.27;;
18172;SDS011;9211;48.818;9.312;2023-04-15T07:47:55;7.50;;;4.17;;
18172;SDS011;9211;48.818;9.312;2023-04-15T07:50:22;10.63;;;4.78;;
18172;SDS011;9211;48.818;9.312;2023-04-15T07:52:50;10.85;;;4.72;;
18172;SDS011;9211;48.818;9.312;2023-04-15T07:55:17;8.55;;;4.53;;
18172;SDS011;9211;48.818;9.312;2023-04-15T07:57:47;7.60;;;4.20;;
18172;SDS011;9211;48.818;9.312;2023-04-15T08:00:14;6.13;;;3.78;;
18172;SDS011;9211;48.818;9.312;2023-04-15T08:02:42;8.00;;;4.20;;
18172;SDS011;9211;48.818;9.312;2023-04-15T08:05:12;7.70;;;4.00;;
18172;SDS011;9211;48.818;9.312;2023-04-15T08:07:40;8.88;;;4.70;;
18172;SDS011;9211;48.818;9.312;2023-04-15T08:10:07;8.40;;;5.00;;
18172;SDS011;9211;48.818;9.312;2023-04-15T08:12:34;10.93;;;4.65;;
18172;SDS011;9211;48.818;9.312;2023-04-15T08:15:02;9.88;;;4.40;;
18172;SDS011;9211;48.818;9.312;2023-04-15T08:17:29;9.30;;;4.40;;
18172;SDS011;9211;48.818;9.312;2023-04-15T08:19:56;8.88;;;4.28;;
18172;SDS011;9211;48.818;9.312;2023-04-15T08:22:25;7.50;;;3.80;;
18172;SDS011;9211;48.818;9.312;2023-04-15T08:24:52;7.07;;;3.80;;
18172;SDS011;9211;48.818;9.312;2023-04-15T08:27:20;9.32;;;4.45;;
18172;SDS011;9211;48.818;9.312;2023-04-15T08:29:47;11.38;;;4.30;;
18172;SDS011;9211;48.818;9.312;2023-04-15T08:32:14;10.70;;;4.20;;
18172;SDS011;9211;48.818;9.312;2023-04-15T08:34:41;7.88;;;4.30;;
18172;SDS011;9211;48.818;9.312;2023-04-15T08:37:08;10.70;;;4.20;;
18172;SDS011;9211;48.818;9.312;2023-04-15T08:39:37;12.48;;;4.90;;
18172;SDS011;9211;48.818;9.312;2023-04-15T08:42:05;9.77;;;4.13;;
18172;SDS011;9211;48.818;9.312;2023-04-15T08:44:37;9.45;;;4.25;;
18172;SDS011;9211;48.818;9.312;2023-04-15T08:47:06;8.90;;;3.72;;
18172;SDS011;9211;48.818;9.312;2023-04-15T08:49:34;10.48;;;3.75;;
18172;SDS011;9211;48.818;9.312;2023-04-15T08:52:04;9.98;;;3.92;;
18172;SDS011;9211;48.818;9.312;2023-04-15T08:54:32;9.65;;;4.60;;
18172;SDS011;9211;48.818;9.312;2023-04-15T08:57:01;10.17;;;4.50;;
18172;SDS011;9211;48.818;9.312;2023-04-15T08:59:28;12.80;;;4.53;;
18172;SDS011;9211;48.818;9.312;2023-04-15T09:01:56;8.00;;;4.20;;
18172;SDS011;9211;48.818;9.312;2023-04-15T09:04:23;8.95;;;4.47;;
18172;SDS011;9211;48.818;9.312;2023-04-15T09:06:50;10.68;;;4.90;;
18172;SDS011;9211;48.818;9.312;2023-04-15T09:09:17;11.68;;;4.90;;
18172;SDS011;9211;48.818;9.312;2023-04-15T09:11:44;8.77;;;4.47;;
18172;SDS011;9211;48.818;9.312;2023-04-15T09:14:12;8.75;;;4.18;;
18172;SDS011;9211;48.818;9.312;2023-04-15T09:16:55;10.15;;;4.03;;
18172;SDS011;9211;48.818;9.312;2023-04-15T09:19:23;11.25;;;3.72;;
18172;SDS011;9211;48.818;9.312;2023-04-15T09:21:52;7.40;;;3.30;;
18172;SDS011;9211;48.818;9.312;2023-04-15T09:24:20;10.63;;;3.80;;
18172;SDS011;9211;48.818;9.312;2023-04-15T09:26:47;9.67;;;3.60;;
18172;SDS011;9211;48.818;9.312;2023-04-15T09:29:19;6.93;;;3.20;;
18172;SDS011;9211;48.818;9.312;2023-04-15T09:31:50;9.13;;;3.80;;
18172;SDS011;9211;48.818;9.312;2023-04-15T09:34:17;8.23;;;3.25;;
18172;SDS011;9211;48.818;9.312;2023-04-15T09:36:52;6.85;;;3.33;;
18172;SDS011;9211;48.818;9.312;2023-04-15T09:39:20;8.77;;;3.72;;
18172;SDS011;9211;48.818;9.312;2023-04-15T09:41:53;9.20;;;4.00;;
18172;SDS011;9211;48.818;9.312;2023-04-15T09:44:32;7.93;;;3.93;;
18172;SDS011;9211;48.818;9.312;2023-04-15T09:46:59;6.53;;;3.45;;
18172;SDS011;9211;48.818;9.312;2023-04-15T09:49:27;7.25;;;3.28;;
18172;SDS011;9211;48.818;9.312;2023-04-15T09:51:56;6.35;;;3.35;;
18172;SDS011;9211;48.818;9.312;2023-04-15T09:54:31;5.90;;;3.20;;
18172;SDS011;9211;48.818;9.312;2023-04-15T09:57:06;8.88;;;3.55;;
18172;SDS011;9211;48.818;9.312;2023-04-15T09:59:37;8.98;;;3.45;;
18172;SDS011;9211;48.818;9.312;2023-04-15T10:02:05;6.33;;;3.33;;
18172;SDS011;9211;48.818;9.312;2023-04-15T10:04:34;6.82;;;3.50;;
18172;SDS011;9211;48.818;9.312;2023-04-15T10:07:02;8.07;;;3.60;;
18172;SDS011;9211;48.818;9.312;2023-04-15T10:09:31;7.88;;;3.55;;
18172;SDS011;9211;48.818;9.312;2023-04-15T10:11:58;11.82;;;3.50;;
18172;SDS011;9211;48.818;9.312;2023-04-15T10:14:27;6.35;;;3.17;;
18172;SDS011;9211;48.818;9.312;2023-04-15T10:16:58;7.63;;;3.20;;
18172;SDS011;9211;48.818;9.312;2023-04-15T10:19:28;5.88;;;2.72;;
18172;SDS011;9211;48.818;9.312;2023-04-15T10:21:57;9.52;;;3.10;;
18172;SDS011;9211;48.818;9.312;2023-04-15T10:24:24;8.20;;;3.03;;
18172;SDS011;9211;48.818;9.312;2023-04-15T10:26:52;6.00;;;2.70;;
18172;SDS011;9211;48.818;9.312;2023-04-15T10:29:20;5.87;;;2.90;;
18172;SDS011;9211;48.818;9.312;2023-04-15T10:31:47;6.47;;;2.80;;
18172;SDS011;9211;48.818;9.312;2023-04-15T10:34:16;6.10;;;2.45;;
18172;SDS011;9211;48.818;9.312;2023-04-15T10:36:44;5.13;;;2.38;;
18172;SDS011;9211;48.818;9.312;2023-04-15T10:42:08;4.90;;;2.42;;
18172;SDS011;9211;48.818;9.312;2023-04-15T10:44:36;6.35;;;2.60;;
18172;SDS011;9211;48.818;9.312;2023-04-15T10:47:05;6.47;;;2.63;;
18172;SDS011;9211;48.818;9.312;2023-04-15T10:49:43;6.45;;;2.70;;
18172;SDS011;9211;48.818;9.312;2023-04-15T10:52:15;7.38;;;3.00;;
18172;SDS011;9211;48.818;9.312;2023-04-15T10:54:42;4.95;;;2.70;;
18172;SDS011;9211;48.818;9.312;2023-04-15T10:57:14;8.95;;;2.90;;
18172;SDS011;9211;48.818;9.312;2023-04-15T10:59:59;7.03;;;2.80;;
18172;SDS011;9211;48.818;9.312;2023-04-15T11:02:38;5.88;;;2.60;;
18172;SDS011;9211;48.818;9.312;2023-04-15T11:05:07;7.18;;;2.83;;
18172;SDS011;9211;48.818;9.312;2023-04-15T11:07:35;8.18;;;3.00;;
18172;SDS011;9211;48.818;9.312;2023-04-15T11:10:03;8.38;;;3.00;;
18172;SDS011;9211;48.818;9.312;2023-04-15T11:13:21;6.82;;;3.10;;
18172;SDS011;9211;48.818;9.312;2023-04-15T11:15:56;7.15;;;3.13;;
18172;SDS011;9211;48.818;9.312;2023-04-15T11:18:26;8.35;;;3.10;;
18172;SDS011;9211;48.818;9.312;2023-04-15T11:20:57;7.07;;;2.70;;
18172;SDS011;9211;48.818;9.312;2023-04-15T11:23:27;6.22;;;3.17;;
18172;SDS011;9211;48.818;9.312;2023-04-15T11:25:57;7.88;;;3.00;;
18172;SDS011;9211;48.818;9.312;2023-04-15T11:28:25;7.57;;;3.30;;
18172;SDS011;9211;48.818;9.312;2023-04-15T11:30:53;10.10;;;3.40;;
18172;SDS011;9211;48.818;9.312;2023-04-15T11:33:21;8.87;;;3.80;;
18172;SDS011;9211;48.818;9.312;2023-04-15T11:35:49;7.53;;;3.60;;
18172;SDS011;9211;48.818;9.312;2023-04-15T11:38:21;9.35;;;3.35;;
18172;SDS011;9211;48.818;9.312;2023-04-15T11:40:49;6.03;;;3.33;;
18172;SDS011;9211;48.818;9.312;2023-04-15T11:43:17;5.80;;;2.90;;
18172;SDS011;9211;48.818;9.312;2023-04-15T11:45:47;6.57;;;3.53;;
18172;SDS011;9211;48.818;9.312;2023-04-15T11:48:16;7.23;;;3.50;;
18172;SDS011;9211;48.818;9.312;2023-04-15T11:50:44;7.35;;;3.58;;
18172;SDS011;9211;48.818;9.312;2023-04-15T11:53:11;7.70;;;3.30;;
18172;SDS011;9211;48.818;9.312;2023-04-15T11:55:44;8.35;;;3.53;;
18172;SDS011;9211;48.818;9.312;2023-04-15T11:58:12;8.15;;;3.92;;
18172;SDS011;9211;48.818;9.312;2023-04-15T12:00:44;8.02;;;4.13;;
18172;SDS011;9211;48.818;9.312;2023-04-15T12:03:16;6.35;;;3.50;;
18172;SDS011;9211;48.818;9.312;2023-04-15T12:06:07;7.10;;;3.33;;
18172;SDS011;9211;48.818;9.312;2023-04-15T12:08:48;6.93;;;2.63;;
18172;SDS011;9211;48.818;9.312;2023-04-15T12:11:33;6.93;;;2.30;;
18172;SDS011;9211;48.818;9.312;2023-04-15T12:14:06;3.97;;;2.10;;
18172;SDS011;9211;48.818;9.312;2023-04-15T12:16:46;6.28;;;2.60;;
18172;SDS011;9211;48.818;9.312;2023-04-15T12:19:15;6.50;;;2.60;;
18172;SDS011;9211;48.818;9.312;2023-04-15T12:21:46;7.10;;;3.22;;
18172;SDS011;9211;48.818;9.312;2023-04-15T12:24:13;6.50;;;2.60;;
18172;SDS011;9211;48.818;9.312;2023-04-15T12:26:45;6.18;;;2.42;;
18172;SDS011;9211;48.818;9.312;2023-04-15T12:29:14;6.70;;;2.50;;
18172;SDS011;9211;48.818;9.312;2023-04-15T12:31:46;9.85;;;3.22;;
18172;SDS011;9211;48.818;9.312;2023-04-15T12:34:15;5.53;;;2.77;;
18172;SDS011;9211;48.818;9.312;2023-04-15T12:36:44;5.88;;;2.85;;
18172;SDS011;9211;48.818;9.312;2023-04-15T12:39:11;7.18;;;3.30;;
18172;SDS011;9211;48.818;9.312;2023-04-15T12:41:38;6.68;;;3.00;;
18172;SDS011;9211;48.818;9.312;2023-04-15T12:44:07;7.70;;;3.30;;
18172;SDS011;9211;48.818;9.312;2023-04-15T12:46:34;6.83;;;3.70;;
18172;SDS011;9211;48.818;9.312;2023-04-15T12:49:01;7.35;;;3.60;;
18172;SDS011;9211;48.818;9.312;2023-04-15T12:51:28;6.45;;;3.33;;
18172;SDS011;9211;48.818;9.312;2023-04-15T12:53:56;7.40;;;3.25;;
18172;SDS011;9211;48.818;9.312;2023-04-15T12:56:23;6.13;;;2.80;;
18172;SDS011;9211;48.818;9.312;2023-04-15T12:58:51;5.05;;;2.60;;
18172;SDS011;9211;48.818;9.312;2023-04-15T13:01:19;8.83;;;2.70;;
18172;SDS011;9211;48.818;9.312;2023-04-15T13:03:46;4.78;;;2.30;;
18172;SDS011;9211;48.818;9.312;2023-04-15T13:06:14;4.00;;;2.20;;
18172;SDS011;9211;48.818;9.312;2023-04-15T13:08:41;4.07;;;1.90;;
18172;SDS011;9211;48.818;9.312;2023-04-15T13:11:09;5.40;;;2.10;;
18172;SDS011;9211;48.818;9.312;2023-04-15T13:13:36;3.55;;;1.80;;
18172;SDS011;9211;48.818;9.312;2023-04-15T13:16:03;4.70;;;1.95;;
18172;SDS011;9211;48.818;9.312;2023-04-15T13:18:31;4.22;;;1.90;;
18172;SDS011;9211;48.818;9.312;2023-04-15T13:20:59;5.15;;;2.65;;
18172;SDS011;9211;48.818;9.312;2023-04-15T13:23:26;7.22;;;2.90;;
18172;SDS011;9211;48.818;9.312;2023-04-15T13:25:53;4.75;;;2.53;;
18172;SDS011;9211;48.818;9.312;2023-04-15T13:28:20;5.20;;;2.03;;
18172;SDS011;9211;48.818;9.312;2023-04-15T13:30:47;4.95;;;1.70;;
18172;SDS011;9211;48.818;9.312;2023-04-15T13:33:15;3.88;;;1.60;;
18172;SDS011;9211;48.818;9.312;2023-04-15T13:35:43;5.43;;;1.60;;
18172;SDS011;9211;48.818;9.312;2023-04-15T13:38:10;6.47;;;1.70;;
18172;SDS011;9211;48.818;9.312;2023-04-15T13:40:37;3.80;;;1.48;;
18172;SDS011;9211;48.818;9.312;2023-04-15T13:43:04;4.90;;;1.48;;
18172;SDS011;9211;48.818;9.312;2023-04-15T13:45:31;4.30;;;1.38;;
18172;SDS011;9211;48.818;9.312;2023-04-15T13:47:58;4.32;;;1.40;;
18172;SDS011;9211;48.818;9.312;2023-04-15T13:50:26;3.33;;;1.30;;
18172;SDS011;9211;48.818;9.312;2023-04-15T13:52:54;4.55;;;1.40;;
18172;SDS011;9211;48.818;9.312;2023-04-15T13:55:21;2.95;;;1.40;;
18172;SDS011;9211;48.818;9.312;2023-04-15T13:57:48;4.40;;;1.50;;
18172;SDS011;9211;48.818;9.312;2023-04-15T14:00:16;4.22;;;1.65;;
18172;SDS011;9211;48.818;9.312;2023-04-15T14:02:43;2.85;;;1.40;;
18172;SDS011;9211;48.818;9.312;2023-04-15T14:05:10;4.47;;;1.20;;
18172;SDS011;9211;48.818;9.312;2023-04-15T14:07:37;1.63;;;1.00;;
18172;SDS011;9211;48.818;9.312;2023-04-15T14:10:07;2.85;;;1.00;;
18172;SDS011;9211;48.818;9.312;2023-04-15T14:12:34;2.13;;;1.00;;
18172;SDS011;9211;48.818;9.312;2023-04-15T14:15:01;3.15;;;1.00;;
18172;SDS011;9211;48.818;9.312;2023-04-15T14:17:28;2.55;;;1.08;;
18172;SDS011;9211;48.818;9.312;2023-04-15T14:19:55;2.05;;;0.95;;
18172;SDS011;9211;48.818;9.312;2023-04-15T14:22:22;3.20;;;1.00;;
18172;SDS011;9211;48.818;9.312;2023-04-15T14:24:49;3.55;;;0.90;;
18172;SDS011;9211;48.818;9.312;2023-04-15T14:27:19;3.40;;;1.08;;
18172;SDS011;9211;48.818;9.312;2023-04-15T14:29:46;3.78;;;1.17;;
18172;SDS011;9211;48.818;9.312;2023-04-15T14:32:13;3.58;;;0.93;;
18172;SDS011;9211;48.818;9.312;2023-04-15T14:34:40;3.30;;;1.17;;
18172;SDS011;9211;48.818;9.312;2023-04-15T14:37:07;3.38;;;1.10;;
18172;SDS011;9211;48.818;9.312;2023-04-15T14:39:34;2.80;;;1.05;;
18172;SDS011;9211;48.818;9.312;2023-04-15T14:42:01;3.88;;;1.50;;
18172;SDS011;9211;48.818;9.312;2023-04-15T14:44:29;2.40;;;1.20;;
18172;SDS011;9211;48.818;9.312;2023-04-15T14:46:56;2.55;;;1.20;;
18172;SDS011;9211;48.818;9.312;2023-04-15T14:49:23;2.55;;;1.30;;
18172;SDS011;9211;48.818;9.312;2023-04-15T14:51:50;3.47;;;1.20;;
18172;SDS011;9211;48.818;9.312;2023-04-15T14:54:17;2.75;;;1.10;;
18172;SDS011;9211;48.818;9.312;2023-04-15T14:56:44;2.80;;;1.25;;
18172;SDS011;9211;48.818;9.312;2023-04-15T14:59:11;2.47;;;1.10;;
18172;SDS011;9211;48.818;9.312;2023-04-15T15:01:42;3.72;;;1.17;;
18172;SDS011;9211;48.818;9.312;2023-04-15T15:04:09;3.40;;;1.38;;
18172;SDS011;9211;48.818;9.312;2023-04-15T15:06:36;2.85;;;1.20;;
18172;SDS011;9211;48.818;9.312;2023-04-15T15:09:03;4.53;;;1.60;;
18172;SDS011;9211;48.818;9.312;2023-04-15T15:11:30;3.38;;;1.20;;